createdAt,value
2023-04-09T00:01:43.293Z,36.53
2023-04-09T00:04:10.593Z,33.67
2023-04-09T00:06:38.370Z,32.07
2023-04-09T00:09:05.998Z,31.90
2023-04-09T00:11:33.572Z,30.00
2023-04-09T00:14:00.807Z,30.60
2023-04-09T00:16:28.019Z,28.33
2023-04-09T00:18:56.243Z,28.00
2023-04-09T00:21:23.575Z,26.43
2023-04-09T00:23:51.425Z,25.17
2023-04-09T00:26:18.962Z,27.63
2023-04-09T00:28:46.815Z,27.37
2023-04-09T00:31:13.998Z,21.60
2023-04-09T00:33:41.255Z,23.00
2023-04-09T00:36:08.556Z,20.80
2023-04-09T00:38:36.006Z,24.50
2023-04-09T00:41:03.214Z,23.93
2023-04-09T00:43:30.629Z,23.00
2023-04-09T00:45:59.426Z,21.67
2023-04-09T00:48:27.469Z,21.97
2023-04-09T00:50:54.860Z,23.13
2023-04-09T00:53:22.146Z,24.90
2023-04-09T00:55:49.492Z,23.80
2023-04-09T00:58:17.012Z,23.10
2023-04-09T01:00:44.167Z,21.80
2023-04-09T01:03:12.009Z,21.80
2023-04-09T01:06:11.921Z,21.53
2023-04-09T01:08:49.174Z,21.13
2023-04-09T01:11:37.946Z,21.60
2023-04-09T01:14:34.872Z,20.37
2023-04-09T01:17:12.295Z,21.90
2023-04-09T01:20:05.365Z,19.90
2023-04-09T01:22:50.828Z,20.10
2023-04-09T01:25:43.617Z,19.13
2023-04-09T01:28:24.422Z,20.30
2023-04-09T01:30:59.605Z,19.10
2023-04-09T01:33:27.727Z,20.93
2023-04-09T01:35:59.317Z,21.10
2023-04-09T01:38:28.835Z,19.67
2023-04-09T01:40:57.356Z,20.27
2023-04-09T01:43:26.281Z,21.60
2023-04-09T01:45:55.089Z,21.20
2023-04-09T01:48:23.607Z,23.80
2023-04-09T01:50:51.894Z,21.97
2023-04-09T01:53:22.347Z,22.60
2023-04-09T01:55:49.586Z,21.60
2023-04-09T01:58:16.788Z,22.13
2023-04-09T02:00:47.926Z,23.33
2023-04-09T02:03:28.372Z,22.20
2023-04-09T02:06:11.333Z,21.00
2023-04-09T02:08:39.202Z,22.90
2023-04-09T02:11:10.597Z,21.37
2023-04-09T02:13:41.225Z,22.40
2023-04-09T02:16:11.304Z,22.13
2023-04-09T02:18:38.761Z,22.93
2023-04-09T02:21:06.522Z,22.73
2023-04-09T02:23:34.940Z,24.27
2023-04-09T02:26:02.517Z,25.50
2023-04-09T02:28:29.676Z,24.80
2023-04-09T02:30:56.917Z,24.37
2023-04-09T02:33:24.170Z,25.03
2023-04-09T02:35:51.470Z,26.20
2023-04-09T02:38:20.033Z,23.67
2023-04-09T02:40:47.553Z,26.50
2023-04-09T02:43:15.763Z,24.90
2023-04-09T02:45:43.493Z,24.67
2023-04-09T02:48:10.937Z,25.10
2023-04-09T02:50:38.424Z,27.17
2023-04-09T02:53:05.801Z,26.70
2023-04-09T02:55:32.983Z,25.47
2023-04-09T02:58:00.517Z,26.83
2023-04-09T03:00:27.795Z,28.10
2023-04-09T03:02:56.583Z,26.60
2023-04-09T03:05:24.149Z,27.07
2023-04-09T03:07:51.537Z,25.60
2023-04-09T03:10:18.935Z,23.70
2023-04-09T03:12:47.775Z,26.87
2023-04-09T03:15:15.213Z,25.90
2023-04-09T03:17:42.413Z,24.63
2023-04-09T03:20:09.832Z,24.57
2023-04-09T03:22:39.658Z,24.73
2023-04-09T03:25:29.999Z,24.50
2023-04-09T03:27:58.047Z,24.83
2023-04-09T03:30:47.307Z,23.10
2023-04-09T03:33:15.497Z,23.13
2023-04-09T03:35:57.982Z,24.40
2023-04-09T03:38:40.840Z,24.60
2023-04-09T03:41:15.977Z,25.30
2023-04-09T03:43:43.459Z,23.50
2023-04-09T03:46:14.813Z,24.10
2023-04-09T03:48:44.840Z,23.53
2023-04-09T03:51:14.296Z,21.37
2023-04-09T03:53:46.441Z,24.00
2023-04-09T03:56:14.192Z,24.60
2023-04-09T03:58:41.737Z,23.43
2023-04-09T04:01:10.654Z,21.73
2023-04-09T04:03:44.153Z,24.00
2023-04-09T04:06:27.188Z,23.13
2023-04-09T04:09:03.190Z,23.13
2023-04-09T04:11:43.449Z,20.67
2023-04-09T04:14:11.240Z,23.77
2023-04-09T04:16:41.400Z,24.13
2023-04-09T04:19:08.951Z,23.07
2023-04-09T04:21:43.267Z,23.90
2023-04-09T04:24:10.547Z,21.90
2023-04-09T04:26:39.313Z,23.60
2023-04-09T04:29:07.029Z,23.83
2023-04-09T04:32:10.153Z,23.30
2023-04-09T04:34:38.501Z,22.00
2023-04-09T04:37:15.535Z,24.00
2023-04-09T04:39:42.886Z,22.53
2023-04-09T04:42:14.862Z,22.00
2023-04-09T04:44:43.401Z,19.40
2023-04-09T04:47:29.016Z,21.70
2023-04-09T04:49:56.247Z,19.90
2023-04-09T04:52:23.583Z,18.90
2023-04-09T04:54:53.355Z,17.90
2023-04-09T04:57:24.005Z,19.33
2023-04-09T04:59:51.393Z,19.20
2023-04-09T05:02:19.624Z,20.00
2023-04-09T05:05:10.286Z,20.93
2023-04-09T05:07:44.582Z,22.20
2023-04-09T05:10:12.622Z,19.07
2023-04-09T05:12:42.701Z,19.77
2023-04-09T05:15:12.190Z,19.37
2023-04-09T05:17:42.489Z,19.80
2023-04-09T05:20:10.638Z,16.90
2023-04-09T05:22:50.970Z,17.80
2023-04-09T05:25:18.582Z,16.03
2023-04-09T05:27:46.264Z,16.20
2023-04-09T05:30:14.040Z,16.27
2023-04-09T05:32:42.618Z,15.93
2023-04-09T05:35:10.823Z,16.13
2023-04-09T05:37:41.606Z,15.10
2023-04-09T05:40:09.631Z,16.03
2023-04-09T05:42:37.865Z,15.80
2023-04-09T05:45:11.824Z,15.77
2023-04-09T05:47:47.379Z,15.63
2023-04-09T05:50:19.748Z,15.17
2023-04-09T05:52:49.595Z,14.73
2023-04-09T05:55:17.172Z,14.47
2023-04-09T05:57:49.033Z,15.30
2023-04-09T06:00:18.286Z,13.63
2023-04-09T06:02:46.402Z,14.43
2023-04-09T06:05:13.998Z,14.40
2023-04-09T06:07:41.275Z,14.20
2023-04-09T06:10:08.783Z,14.87
2023-04-09T06:12:36.318Z,15.97
2023-04-09T06:15:05.444Z,14.10
2023-04-09T06:17:33.394Z,14.50
2023-04-09T06:20:00.896Z,13.03
2023-04-09T06:22:28.155Z,13.93
2023-04-09T06:24:55.715Z,13.90
2023-04-09T06:27:23.677Z,14.43
2023-04-09T06:29:51.348Z,16.40
2023-04-09T06:32:18.808Z,16.60
2023-04-09T06:34:46.636Z,15.30
2023-04-09T06:37:13.859Z,14.77
2023-04-09T06:39:47.653Z,14.50
2023-04-09T06:42:26.608Z,13.83
2023-04-09T06:45:11.371Z,15.17
2023-04-09T06:47:38.709Z,14.90
2023-04-09T06:50:07.194Z,13.90
2023-04-09T06:52:34.502Z,16.70
2023-04-09T06:55:01.847Z,17.80
2023-04-09T06:57:29.600Z,17.53
2023-04-09T06:59:57.225Z,17.83
2023-04-09T07:02:24.781Z,19.83
2023-04-09T07:04:52.268Z,18.37
2023-04-09T07:07:20.849Z,18.03
2023-04-09T07:09:48.829Z,18.00
2023-04-09T07:12:29.645Z,18.70
2023-04-09T07:15:01.436Z,21.23
2023-04-09T07:17:29.214Z,19.77
2023-04-09T07:19:57.047Z,19.50
2023-04-09T07:22:26.751Z,17.10
2023-04-09T07:24:55.230Z,15.83
2023-04-09T07:27:23.484Z,12.90
2023-04-09T07:29:51.095Z,15.17
2023-04-09T07:32:19.165Z,14.40
2023-04-09T07:34:46.666Z,13.70
2023-04-09T07:37:14.173Z,14.43
2023-04-09T07:39:42.470Z,13.50
2023-04-09T07:42:09.693Z,14.70
2023-04-09T07:44:36.993Z,13.20
2023-04-09T07:47:05.659Z,13.73
2023-04-09T07:49:35.161Z,13.20
2023-04-09T07:52:03.904Z,13.93
2023-04-09T07:54:31.691Z,13.53
2023-04-09T07:56:59.479Z,14.70
2023-04-09T07:59:27.754Z,15.00
2023-04-09T08:01:55.284Z,14.53
2023-04-09T08:04:22.820Z,16.47
2023-04-09T08:06:51.666Z,16.30
2023-04-09T08:09:19.593Z,14.07
2023-04-09T08:11:47.890Z,14.03
2023-04-09T08:14:16.236Z,16.20
2023-04-09T08:16:46.070Z,13.10
2023-04-09T08:19:15.707Z,13.80
2023-04-09T08:21:43.865Z,15.23
2023-04-09T08:24:12.293Z,14.37
2023-04-09T08:26:42.047Z,15.57
2023-04-09T08:29:12.226Z,16.10
2023-04-09T08:31:39.933Z,16.47
2023-04-09T08:34:07.246Z,16.17
2023-04-09T08:36:35.634Z,16.43
2023-04-09T08:39:03.929Z,16.13
2023-04-09T08:41:31.606Z,14.90
2023-04-09T08:43:59.968Z,16.17
2023-04-09T08:46:28.471Z,16.27
2023-04-09T08:48:56.074Z,15.63
2023-04-09T08:51:24.545Z,16.67
2023-04-09T08:54:03.720Z,18.70
2023-04-09T08:56:31.918Z,20.53
2023-04-09T08:58:59.210Z,18.10
2023-04-09T09:01:31.994Z,17.77
2023-04-09T09:04:07.299Z,18.90
2023-04-09T09:06:40.940Z,18.63
2023-04-09T09:09:16.500Z,18.87
2023-04-09T09:11:45.801Z,18.17
2023-04-09T09:14:15.963Z,16.73
2023-04-09T09:17:03.552Z,18.43
2023-04-09T09:19:36.261Z,17.63
2023-04-09T09:22:07.896Z,17.07
2023-04-09T09:24:48.485Z,16.13
2023-04-09T09:27:37.218Z,16.83
2023-04-09T09:30:06.590Z,15.57
2023-04-09T09:32:34.322Z,15.30
2023-04-09T09:35:03.265Z,14.47
2023-04-09T09:37:31.480Z,15.60
2023-04-09T09:39:59.494Z,16.03
2023-04-09T09:42:27.478Z,15.20
2023-04-09T09:44:55.894Z,14.37
2023-04-09T09:47:25.537Z,14.93
2023-04-09T09:49:53.167Z,15.27
2023-04-09T09:52:26.010Z,14.73
2023-04-09T09:54:53.991Z,17.03
2023-04-09T09:57:24.020Z,16.20
2023-04-09T09:59:54.770Z,19.10
2023-04-09T10:02:25.062Z,19.00
2023-04-09T10:04:53.115Z,19.40
2023-04-09T10:07:22.381Z,17.50
2023-04-09T10:09:51.440Z,17.40
2023-04-09T10:12:19.897Z,17.90
2023-04-09T10:14:47.604Z,17.67
2023-04-09T10:17:16.112Z,16.30
2023-04-09T10:19:48.095Z,16.03
2023-04-09T10:22:18.767Z,16.23
2023-04-09T10:24:47.055Z,15.43
2023-04-09T10:27:18.163Z,16.27
2023-04-09T10:29:46.680Z,16.47
2023-04-09T10:32:21.172Z,16.60
2023-04-09T10:34:50.746Z,16.93
2023-04-09T10:37:22.591Z,15.23
2023-04-09T10:39:52.336Z,17.07
2023-04-09T10:42:27.220Z,18.87
2023-04-09T10:45:06.476Z,18.20
2023-04-09T10:47:38.005Z,17.47
2023-04-09T10:50:26.956Z,16.80
2023-04-09T10:52:56.440Z,14.30
2023-04-09T10:55:36.251Z,14.40
2023-04-09T10:58:04.915Z,16.00
2023-04-09T11:00:33.692Z,16.87
2023-04-09T11:03:11.193Z,16.50
2023-04-09T11:05:40.348Z,16.97
2023-04-09T11:08:09.629Z,17.07
2023-04-09T11:10:38.315Z,15.40
2023-04-09T11:13:08.246Z,15.43
2023-04-09T11:15:37.349Z,15.10
2023-04-09T11:18:06.958Z,18.10
2023-04-09T11:20:35.106Z,16.67
2023-04-09T11:23:02.950Z,16.93
2023-04-09T11:25:32.739Z,16.40
2023-04-09T11:28:00.527Z,39.83
2023-04-09T11:30:28.862Z,25.80
2023-04-09T11:32:56.468Z,19.00
2023-04-09T11:35:24.109Z,14.60
2023-04-09T11:37:52.276Z,16.63
2023-04-09T11:40:19.891Z,16.97
2023-04-09T11:42:49.446Z,16.30
2023-04-09T11:45:17.489Z,16.90
2023-04-09T11:47:47.127Z,15.03
2023-04-09T11:50:16.882Z,14.97
2023-04-09T11:52:45.692Z,14.83
2023-04-09T11:55:26.691Z,16.13
2023-04-09T11:58:00.739Z,16.07
2023-04-09T12:00:28.871Z,16.40
2023-04-09T12:03:04.402Z,15.47
2023-04-09T12:05:34.069Z,28.80
2023-04-09T12:08:04.943Z,19.50
2023-04-09T12:10:35.364Z,18.03
2023-04-09T12:13:05.376Z,16.77
2023-04-09T12:15:38.374Z,19.23
2023-04-09T12:18:08.930Z,18.53
2023-04-09T12:20:44.254Z,25.13
2023-04-09T12:23:12.818Z,22.07
2023-04-09T12:25:41.609Z,36.07
2023-04-09T12:28:10.240Z,17.60
2023-04-09T12:30:37.773Z,23.60
2023-04-09T12:33:05.432Z,22.43
2023-04-09T12:35:35.037Z,22.43
2023-04-09T12:38:02.703Z,16.93
2023-04-09T12:40:30.559Z,17.10
2023-04-09T12:42:58.078Z,17.07
2023-04-09T12:45:25.779Z,17.47
2023-04-09T12:47:53.397Z,16.50
2023-04-09T12:50:20.934Z,16.67
2023-04-09T12:52:48.629Z,16.70
2023-04-09T12:55:16.583Z,16.43
2023-04-09T12:57:45.740Z,21.07
2023-04-09T13:00:13.819Z,18.90
2023-04-09T13:02:41.593Z,23.43
2023-04-09T13:05:09.850Z,17.37
2023-04-09T13:07:37.498Z,22.17
2023-04-09T13:10:05.389Z,24.97
2023-04-09T13:12:32.704Z,19.00
2023-04-09T13:15:00.521Z,18.10
2023-04-09T13:17:27.816Z,16.30
2023-04-09T13:19:55.002Z,16.20
2023-04-09T13:22:22.611Z,17.33
2023-04-09T13:24:49.771Z,17.37
2023-04-09T13:27:17.602Z,15.57
2023-04-09T13:29:44.826Z,15.50
2023-04-09T13:32:12.003Z,16.77
2023-04-09T13:34:40.449Z,16.20
2023-04-09T13:37:08.153Z,16.30
2023-04-09T13:39:36.231Z,14.83
2023-04-09T13:42:16.868Z,15.80
2023-04-09T13:44:45.463Z,16.10
2023-04-09T13:47:14.158Z,15.30
2023-04-09T13:49:42.288Z,14.00
2023-04-09T13:52:10.542Z,15.20
2023-04-09T13:54:38.091Z,18.73
2023-04-09T13:57:05.399Z,16.10
2023-04-09T13:59:33.256Z,17.07
2023-04-09T14:02:00.764Z,18.50
2023-04-09T14:04:28.147Z,15.50
2023-04-09T14:06:57.139Z,15.97
2023-04-09T14:09:24.556Z,14.80
2023-04-09T14:11:54.551Z,14.27
2023-04-09T14:14:21.745Z,15.53
2023-04-09T14:16:50.277Z,13.20
2023-04-09T14:19:17.571Z,13.43
2023-04-09T14:21:44.775Z,14.20
2023-04-09T14:24:12.079Z,14.63
2023-04-09T14:26:39.211Z,12.30
2023-04-09T14:29:06.660Z,14.47
2023-04-09T14:31:33.865Z,12.50
2023-04-09T14:34:01.106Z,12.50
2023-04-09T14:36:28.356Z,12.40
2023-04-09T14:38:57.593Z,12.17
2023-04-09T14:41:26.178Z,12.57
2023-04-09T14:43:53.425Z,13.00
2023-04-09T14:46:21.927Z,12.33
2023-04-09T14:48:49.444Z,13.10
2023-04-09T14:51:17.333Z,14.00
2023-04-09T14:53:44.511Z,13.47
2023-04-09T14:56:12.385Z,14.40
2023-04-09T14:58:39.640Z,14.10
2023-04-09T15:01:06.877Z,13.57
2023-04-09T15:03:34.241Z,14.77
2023-04-09T15:06:01.583Z,14.53
2023-04-09T15:08:28.855Z,13.60
2023-04-09T15:10:56.007Z,13.70
2023-04-09T15:13:24.023Z,13.80
2023-04-09T15:15:51.379Z,13.30
2023-04-09T15:18:21.301Z,13.73
2023-04-09T15:20:50.407Z,14.20
2023-04-09T15:23:17.652Z,13.53
2023-04-09T15:25:45.442Z,14.17
2023-04-09T15:28:14.319Z,14.00
2023-04-09T15:30:41.811Z,13.53
2023-04-09T15:33:09.201Z,14.07
2023-04-09T15:35:36.555Z,13.40
2023-04-09T15:38:03.842Z,13.60
2023-04-09T15:40:31.903Z,13.73
2023-04-09T15:42:59.441Z,13.87
2023-04-09T15:45:27.121Z,14.90
2023-04-09T15:47:55.255Z,13.97
2023-04-09T15:50:22.916Z,14.90
2023-04-09T15:52:50.396Z,13.97
2023-04-09T15:55:18.493Z,12.57
2023-04-09T15:57:46.763Z,13.00
2023-04-09T16:00:15.477Z,12.50
2023-04-09T16:02:43.189Z,13.00
2023-04-09T16:05:10.764Z,13.67
2023-04-09T16:07:39.546Z,13.50
2023-04-09T16:10:07.472Z,13.30
2023-04-09T16:12:34.930Z,12.40
2023-04-09T16:15:02.445Z,12.30
2023-04-09T16:17:30.888Z,12.10
2023-04-09T16:19:58.450Z,13.13
2023-04-09T16:22:25.958Z,12.80
2023-04-09T16:24:53.311Z,12.40
2023-04-09T16:27:20.762Z,13.70
2023-04-09T16:29:48.077Z,12.70
2023-04-09T16:32:15.420Z,12.67
2023-04-09T16:34:42.669Z,12.00
2023-04-09T16:37:09.955Z,12.63
2023-04-09T16:39:37.311Z,12.83
2023-04-09T16:42:04.823Z,12.63
2023-04-09T16:44:32.124Z,13.33
2023-04-09T16:47:01.026Z,12.80
2023-04-09T16:49:28.485Z,12.50
2023-04-09T16:51:57.080Z,12.47
2023-04-09T16:54:24.716Z,14.30
2023-04-09T16:56:53.193Z,13.20
2023-04-09T16:59:21.373Z,13.80
2023-04-09T17:01:49.658Z,13.13
2023-04-09T17:04:17.862Z,13.47
2023-04-09T17:06:45.772Z,13.60
2023-04-09T17:09:13.171Z,13.77
2023-04-09T17:11:40.885Z,12.50
2023-04-09T17:14:08.295Z,13.20
2023-04-09T17:16:37.310Z,13.10
2023-04-09T17:19:05.090Z,13.23
2023-04-09T17:21:33.181Z,12.63
2023-04-09T17:24:02.710Z,13.10
2023-04-09T17:26:30.065Z,14.50
2023-04-09T17:28:58.476Z,13.20
2023-04-09T17:31:26.725Z,15.67
2023-04-09T17:33:54.380Z,13.33
2023-04-09T17:36:22.855Z,14.10
2023-04-09T17:38:52.612Z,13.00
2023-04-09T17:41:20.874Z,13.90
2023-04-09T17:43:48.703Z,14.83
2023-04-09T17:46:17.208Z,13.73
2023-04-09T17:48:44.768Z,13.23
2023-04-09T17:51:16.248Z,13.47
2023-04-09T17:53:44.187Z,13.27
2023-04-09T17:56:18.034Z,13.87
2023-04-09T17:58:46.382Z,14.63
2023-04-09T18:01:14.030Z,15.20
2023-04-09T18:03:48.779Z,11.10
2023-04-09T18:06:17.305Z,15.80
2023-04-09T18:08:44.962Z,14.40
2023-04-09T18:11:15.353Z,15.03
2023-04-09T18:13:42.864Z,19.30
2023-04-09T18:16:13.469Z,18.87
2023-04-09T18:18:41.310Z,22.57
2023-04-09T18:21:09.605Z,24.37
2023-04-09T18:23:36.975Z,23.27
2023-04-09T18:26:04.547Z,21.20
2023-04-09T18:28:32.072Z,20.50
2023-04-09T18:30:59.520Z,22.80
2023-04-09T18:33:27.033Z,20.80
2023-04-09T18:35:54.884Z,19.43
2023-04-09T18:38:22.546Z,19.43
2023-04-09T18:40:50.223Z,19.07
2023-04-09T18:43:17.521Z,17.47
2023-04-09T18:45:44.854Z,17.80
2023-04-09T18:48:12.633Z,15.87
2023-04-09T18:50:39.959Z,18.40
2023-04-09T18:53:07.509Z,18.10
2023-04-09T18:55:38.006Z,18.23
2023-04-09T18:58:12.530Z,18.50
2023-04-09T19:00:39.927Z,16.57
2023-04-09T19:03:08.686Z,16.73
2023-04-09T19:05:36.199Z,17.23
2023-04-09T19:08:06.729Z,16.70
2023-04-09T19:10:34.048Z,17.60
2023-04-09T19:13:02.238Z,15.97
2023-04-09T19:15:29.795Z,14.77
2023-04-09T19:17:57.437Z,16.33
2023-04-09T19:20:24.843Z,16.23
2023-04-09T19:22:54.442Z,16.20
2023-04-09T19:25:22.778Z,16.40
2023-04-09T19:27:50.541Z,17.63
2023-04-09T19:30:17.905Z,17.57
2023-04-09T19:32:46.248Z,18.07
2023-04-09T19:35:13.687Z,17.53
2023-04-09T19:37:41.112Z,17.10
2023-04-09T19:40:09.903Z,15.70
2023-04-09T19:42:37.984Z,16.90
2023-04-09T19:45:05.846Z,15.43
2023-04-09T19:47:34.696Z,15.43
2023-04-09T19:50:02.246Z,16.20
2023-04-09T19:52:31.607Z,16.70
2023-04-09T19:55:01.844Z,15.50
2023-04-09T19:57:33.415Z,16.50
2023-04-09T20:00:02.301Z,17.00
2023-04-09T20:02:41.389Z,20.07
2023-04-09T20:05:10.372Z,22.40
2023-04-09T20:07:38.890Z,18.77
2023-04-09T20:10:06.842Z,19.17
2023-04-09T20:12:34.433Z,19.83
2023-04-09T20:15:02.390Z,19.07
2023-04-09T20:17:29.765Z,19.60
2023-04-09T20:19:57.162Z,18.77
2023-04-09T20:22:24.628Z,21.50
2023-04-09T20:24:52.559Z,21.43
2023-04-09T20:27:21.956Z,21.17
2023-04-09T20:29:49.558Z,21.00
2023-04-09T20:32:17.030Z,21.77
2023-04-09T20:34:44.510Z,22.70
2023-04-09T20:37:11.903Z,22.70
2023-04-09T20:39:39.198Z,23.00
2023-04-09T20:42:06.406Z,21.97
2023-04-09T20:44:35.802Z,23.00
2023-04-09T20:47:03.062Z,23.47
2023-04-09T20:49:30.557Z,23.10
2023-04-09T20:51:58.199Z,23.33
2023-04-09T20:54:25.745Z,23.93
2023-04-09T20:56:52.959Z,21.77
2023-04-09T20:59:20.261Z,21.33
2023-04-09T21:01:48.213Z,22.93
2023-04-09T21:04:16.081Z,22.17
2023-04-09T21:06:43.505Z,22.03
2023-04-09T21:09:12.440Z,21.23
2023-04-09T21:11:39.769Z,22.67
2023-04-09T21:14:07.888Z,21.00
2023-04-09T21:16:36.426Z,22.43
2023-04-09T21:19:07.100Z,22.17
2023-04-09T21:21:34.991Z,21.93
2023-04-09T21:24:02.520Z,21.47
2023-04-09T21:26:38.674Z,24.00
2023-04-09T21:29:16.166Z,22.50
2023-04-09T21:31:43.409Z,23.97
2023-04-09T21:34:11.454Z,25.43
2023-04-09T21:36:39.673Z,26.00
2023-04-09T21:39:07.645Z,27.83
2023-04-09T21:41:35.390Z,28.67
2023-04-09T21:44:08.019Z,27.43
2023-04-09T21:46:41.411Z,29.33
2023-04-09T21:49:08.763Z,30.10
2023-04-09T21:51:36.526Z,27.60
2023-04-09T21:54:04.975Z,29.23
2023-04-09T21:56:33.466Z,28.10
2023-04-09T21:59:01.195Z,28.20
2023-04-09T22:01:30.538Z,28.47
2023-04-09T22:03:59.475Z,27.13
2023-04-09T22:06:29.871Z,27.83
2023-04-09T22:08:57.959Z,28.93
2023-04-09T22:11:28.111Z,28.33
2023-04-09T22:13:57.593Z,28.60
2023-04-09T22:16:25.774Z,28.67
2023-04-09T22:18:54.835Z,28.70
2023-04-09T22:21:22.729Z,31.43
2023-04-09T22:23:50.468Z,27.50
2023-04-09T22:26:18.322Z,27.10
2023-04-09T22:28:45.631Z,25.03
2023-04-09T22:31:12.961Z,23.47
2023-04-09T22:33:40.341Z,26.90
2023-04-09T22:36:08.143Z,27.87
2023-04-09T22:38:35.955Z,27.27
2023-04-09T22:41:05.800Z,28.90
2023-04-09T22:43:36.091Z,28.10
2023-04-09T22:46:03.449Z,27.60
2023-04-09T22:48:30.842Z,25.90
2023-04-09T22:50:58.618Z,26.30
2023-04-09T22:53:26.319Z,27.43
2023-04-09T22:55:58.498Z,26.33
2023-04-09T22:58:25.673Z,23.63
2023-04-09T23:00:53.514Z,25.43
2023-04-09T23:03:23.069Z,22.60
2023-04-09T23:05:50.744Z,23.27
2023-04-09T23:08:17.929Z,25.23
2023-04-09T23:10:45.908Z,23.10
2023-04-09T23:13:17.983Z,22.37
2023-04-09T23:15:47.806Z,23.13
2023-04-09T23:18:15.239Z,21.03
2023-04-09T23:20:43.083Z,24.33
2023-04-09T23:23:11.826Z,23.50
2023-04-09T23:25:42.217Z,22.27
2023-04-09T23:28:10.217Z,21.63
2023-04-09T23:30:37.469Z,21.63
2023-04-09T23:33:04.859Z,22.57
2023-04-09T23:35:32.600Z,20.63
2023-04-09T23:38:02.007Z,21.47
2023-04-09T23:40:29.300Z,23.00
2023-04-09T23:42:56.544Z,22.10
2023-04-09T23:45:23.741Z,22.73
2023-04-09T23:47:51.387Z,24.63
2023-04-09T23:50:18.790Z,23.80
2023-04-09T23:52:48.828Z,24.10
2023-04-09T23:55:16.323Z,24.50
2023-04-09T23:57:43.662Z,23.83
